createdAt,value
2022-09-15T00:00:31.193Z,100839.69
2022-09-15T00:02:58.215Z,100841.09
2022-09-15T00:05:25.180Z,100847.41
2022-09-15T00:07:52.082Z,100842.78
2022-09-15T00:10:19.088Z,100843.69
2022-09-15T00:12:46.078Z,100836.13
2022-09-15T00:15:15.030Z,100831.00
2022-09-15T00:17:43.305Z,100833.97
2022-09-15T00:20:11.025Z,100837.94
2022-09-15T00:22:37.956Z,100840.88
2022-09-15T00:25:05.473Z,100835.47
2022-09-15T00:27:33.488Z,100837.63
2022-09-15T00:30:00.490Z,100840.84
2022-09-15T00:32:27.385Z,100839.63
2022-09-15T00:34:54.326Z,100836.53
2022-09-15T00:37:21.893Z,100837.59
2022-09-15T00:39:49.146Z,100835.75
2022-09-15T00:42:18.351Z,100844.09
2022-09-15T00:44:55.219Z,100843.31
2022-09-15T00:47:27.691Z,100838.06
2022-09-15T00:50:01.398Z,100847.78
2022-09-15T00:52:38.937Z,100844.69
2022-09-15T00:55:08.651Z,100848.41
2022-09-15T00:57:39.745Z,100845.31
2022-09-15T01:00:11.413Z,100848.25
2022-09-15T01:02:40.214Z,100843.00
2022-09-15T01:05:10.878Z,100845.31
2022-09-15T01:07:44.375Z,100845.63
2022-09-15T01:10:41.380Z,100844.84
2022-09-15T01:13:11.703Z,100837.28
2022-09-15T01:15:56.257Z,100839.72
2022-09-15T01:18:48.964Z,100841.41
2022-09-15T01:21:58.843Z,100843.56
2022-09-15T01:24:33.135Z,100842.34
2022-09-15T01:27:18.444Z,100853.88
2022-09-15T01:30:07.327Z,100854.66
2022-09-15T01:32:55.414Z,100854.38
2022-09-15T01:35:22.255Z,100843.09
2022-09-15T01:38:11.728Z,100848.91
2022-09-15T01:40:45.650Z,100849.53
2022-09-15T01:43:15.146Z,100851.69
2022-09-15T01:45:45.513Z,100855.38
2022-09-15T01:48:12.620Z,100857.53
2022-09-15T01:50:44.689Z,100864.44
2022-09-15T01:53:19.268Z,100854.09
2022-09-15T01:55:58.047Z,100859.34
2022-09-15T01:58:24.984Z,100859.16
2022-09-15T02:01:05.103Z,100853.91
2022-09-15T02:03:44.833Z,100856.38
2022-09-15T02:06:21.866Z,100863.47
2022-09-15T02:09:02.905Z,100852.03
2022-09-15T02:11:30.556Z,100851.84
2022-09-15T02:14:18.547Z,100846.59
2022-09-15T02:16:49.711Z,100857.09
2022-09-15T02:19:31.874Z,100850.31
2022-09-15T02:22:17.806Z,100849.03
2022-09-15T02:24:59.066Z,100852.47
2022-09-15T02:27:31.849Z,100850.31
2022-09-15T02:30:06.219Z,100850.31
2022-09-15T02:32:34.963Z,100854.75
2022-09-15T02:35:06.754Z,100854.47
2022-09-15T02:37:36.482Z,100860.97
2022-09-15T02:40:04.875Z,100866.38
2022-09-15T02:42:33.138Z,100860.06
2022-09-15T02:45:01.013Z,100863.47
2022-09-15T02:47:28.719Z,100864.22
2022-09-15T02:49:56.328Z,100860.41
2022-09-15T02:52:23.677Z,100854.09
2022-09-15T02:54:50.653Z,100861.66
2022-09-15T02:57:17.789Z,100846.69
2022-09-15T03:00:03.833Z,100860.28
2022-09-15T03:02:31.741Z,100860.28
2022-09-15T03:04:58.648Z,100860.75
2022-09-15T03:07:25.596Z,100863.38
2022-09-15T03:09:52.486Z,100864.63
2022-09-15T03:12:19.376Z,100857.53
2022-09-15T03:14:47.139Z,100847.50
2022-09-15T03:17:13.983Z,100858.78
2022-09-15T03:19:40.781Z,100857.69
2022-09-15T03:22:09.517Z,100861.09
2022-09-15T03:24:37.690Z,100857.69
2022-09-15T03:27:05.565Z,100856.31
2022-09-15T03:29:32.404Z,100869.75
2022-09-15T03:31:59.431Z,100866.03
2022-09-15T03:34:26.303Z,100871.00
2022-09-15T03:36:53.235Z,100877.31
2022-09-15T03:39:20.084Z,100877.31
2022-09-15T03:41:46.970Z,100877.31
2022-09-15T03:44:13.770Z,100872.53
2022-09-15T03:46:40.548Z,100880.41
2022-09-15T03:49:07.459Z,100876.72
2022-09-15T03:51:34.301Z,100884.59
2022-09-15T03:54:01.246Z,100882.25
2022-09-15T03:56:33.111Z,100881.19
2022-09-15T03:59:04.102Z,100873.31
2022-09-15T04:01:31.526Z,100884.59
2022-09-15T04:03:59.068Z,100887.81
2022-09-15T04:06:26.778Z,100888.88
2022-09-15T04:08:54.292Z,100887.50
2022-09-15T04:11:22.316Z,100884.13
2022-09-15T04:13:49.316Z,100880.41
2022-09-15T04:16:19.260Z,100879.06
2022-09-15T04:18:46.482Z,100878.44
2022-09-15T04:21:16.908Z,100874.75
2022-09-15T04:23:44.396Z,100880.16
2022-09-15T04:26:22.670Z,100865.22
2022-09-15T04:28:49.570Z,100872.00
2022-09-15T04:31:18.022Z,100876.19
2022-09-15T04:33:45.566Z,100892.22
2022-09-15T04:36:18.189Z,100879.41
2022-09-15T04:38:45.698Z,100880.50
2022-09-15T04:41:14.392Z,100891.47
2022-09-15T04:43:43.386Z,100874.91
2022-09-15T04:46:11.104Z,100878.63
2022-09-15T04:48:38.344Z,100876.78
2022-09-15T04:51:08.221Z,100877.88
2022-09-15T04:53:35.813Z,100877.88
2022-09-15T04:56:08.406Z,100877.88
2022-09-15T04:58:37.243Z,100877.88
2022-09-15T05:01:13.509Z,100868.91
2022-09-15T05:03:41.435Z,100873.84
2022-09-15T05:06:11.191Z,100879.88
2022-09-15T05:08:38.430Z,100878.50
2022-09-15T05:11:08.614Z,100874.31
2022-09-15T05:13:37.004Z,100884.06
2022-09-15T05:16:09.295Z,100879.88
2022-09-15T05:18:36.216Z,100878.03
2022-09-15T05:21:05.050Z,100886.97
2022-09-15T05:23:33.633Z,100887.75
2022-09-15T05:26:02.784Z,100893.16
2022-09-15T05:28:29.835Z,100889.47
2022-09-15T05:30:56.758Z,100878.66
2022-09-15T05:33:24.136Z,100873.88
2022-09-15T05:35:58.924Z,100884.38
2022-09-15T05:38:28.465Z,100880.97
2022-09-15T05:40:56.089Z,100888.84
2022-09-15T05:43:23.350Z,100884.38
2022-09-15T05:45:56.380Z,100884.38
2022-09-15T05:48:23.321Z,100887.78
2022-09-15T05:50:52.688Z,100892.56
2022-09-15T05:53:20.454Z,100897.19
2022-09-15T05:55:47.492Z,100896.59
2022-09-15T05:58:15.202Z,100893.66
2022-09-15T06:00:42.663Z,100896.16
2022-09-15T06:03:15.405Z,100895.53
2022-09-15T06:05:43.107Z,100891.56
2022-09-15T06:08:10.688Z,100897.75
2022-09-15T06:10:37.604Z,100899.16
2022-09-15T06:13:04.978Z,100900.56
2022-09-15T06:15:32.323Z,100897.78
2022-09-15T06:17:59.213Z,100902.13
2022-09-15T06:20:26.195Z,100909.72
2022-09-15T06:22:53.310Z,100904.47
2022-09-15T06:25:20.042Z,100905.69
2022-09-15T06:27:49.817Z,100915.91
2022-09-15T06:30:17.967Z,100915.28
2022-09-15T06:32:48.197Z,100916.06
2022-09-15T06:35:15.794Z,100921.63
2022-09-15T06:37:42.671Z,100919.47
2022-09-15T06:40:10.308Z,100920.75
2022-09-15T06:42:37.289Z,100923.38
2022-09-15T06:45:04.639Z,100921.50
2022-09-15T06:47:34.149Z,100931.38
2022-09-15T06:50:01.394Z,100936.97
2022-09-15T06:52:28.340Z,100942.41
2022-09-15T06:54:55.191Z,100940.53
2022-09-15T06:57:22.041Z,100943.66
2022-09-15T06:59:48.928Z,100946.94
2022-09-15T07:02:15.827Z,100947.53
2022-09-15T07:04:42.920Z,100953.84
2022-09-15T07:07:09.868Z,100948.84
2022-09-15T07:09:40.945Z,100957.66
2022-09-15T07:12:08.296Z,100961.66
2022-09-15T07:14:35.112Z,100965.06
2022-09-15T07:17:01.958Z,100976.84
2022-09-15T07:19:28.799Z,100979.66
2022-09-15T07:21:55.639Z,100975.97
2022-09-15T07:24:22.479Z,100979.06
2022-09-15T07:26:49.386Z,100981.22
2022-09-15T07:29:16.219Z,100983.09
2022-09-15T07:31:42.991Z,100988.81
2022-09-15T07:34:09.898Z,100981.38
2022-09-15T07:36:36.911Z,100991.44
2022-09-15T07:39:04.811Z,100990.81
2022-09-15T07:41:32.354Z,100992.50
2022-09-15T07:44:00.525Z,100989.84
2022-09-15T07:46:30.425Z,100996.03
2022-09-15T07:48:57.259Z,100991.97
2022-09-15T07:51:25.349Z,100992.72
2022-09-15T07:53:53.474Z,100994.72
2022-09-15T07:56:21.289Z,100986.81
2022-09-15T07:58:49.325Z,100998.91
2022-09-15T08:01:17.901Z,101001.84
2022-09-15T08:03:49.038Z,101006.13
2022-09-15T08:06:18.800Z,101017.41
2022-09-15T08:08:45.797Z,101011.34
2022-09-15T08:11:18.382Z,101015.34
2022-09-15T08:13:50.014Z,101022.13
2022-09-15T08:16:19.936Z,101016.25
2022-09-15T08:18:47.153Z,101017.25
2022-09-15T08:21:17.575Z,101015.22
2022-09-15T08:23:44.935Z,101025.16
2022-09-15T08:26:14.314Z,101031.00
2022-09-15T08:28:42.152Z,101035.56
2022-09-15T08:31:12.743Z,101040.03
2022-09-15T08:33:44.746Z,101046.97
2022-09-15T08:36:13.524Z,101046.00
2022-09-15T08:38:41.859Z,101043.00
2022-09-15T08:41:21.612Z,101054.28
2022-09-15T08:43:59.457Z,101062.00
2022-09-15T08:46:37.248Z,101051.44
2022-09-15T08:49:12.607Z,101056.09
2022-09-15T08:51:47.538Z,101062.78
2022-09-15T08:54:20.575Z,101059.13
2022-09-15T08:56:48.748Z,101062.56
2022-09-15T08:59:17.186Z,101067.72
2022-09-15T09:01:52.448Z,101069.59
2022-09-15T09:04:28.384Z,101068.13
2022-09-15T09:07:26.358Z,101069.59
2022-09-15T09:10:01.801Z,101068.31
2022-09-15T09:12:46.673Z,101069.88
2022-09-15T09:15:16.372Z,101069.06
2022-09-15T09:18:12.865Z,101066.25
2022-09-15T09:20:39.823Z,101075.28
2022-09-15T09:23:13.924Z,101074.31
2022-09-15T09:25:43.239Z,101071.78
2022-09-15T09:28:22.511Z,101071.97
2022-09-15T09:30:49.848Z,101072.16
2022-09-15T09:33:30.554Z,101071.94
2022-09-15T09:36:00.296Z,101071.34
2022-09-15T09:38:32.120Z,101072.31
2022-09-15T09:41:02.255Z,101069.84
2022-09-15T09:43:30.820Z,101071.56
2022-09-15T09:45:58.046Z,101072.31
2022-09-15T09:48:27.572Z,101070.47
2022-09-15T09:50:55.385Z,101071.88
2022-09-15T09:53:33.245Z,101078.63
2022-09-15T09:56:12.730Z,101089.03
2022-09-15T09:58:39.574Z,101084.38
2022-09-15T10:01:18.142Z,101082.44
2022-09-15T10:03:45.651Z,101086.00
2022-09-15T10:06:14.549Z,101084.81
2022-09-15T10:09:09.100Z,101086.47
2022-09-15T10:11:40.444Z,101086.47
2022-09-15T10:17:55.994Z,101070.59
2022-09-15T10:20:28.591Z,101063.75
2022-09-15T10:23:17.841Z,101080.59
2022-09-15T10:26:01.348Z,101074.16
2022-09-15T10:28:29.148Z,101065.88
2022-09-15T10:31:08.138Z,101068.66
2022-09-15T10:33:40.508Z,101061.66
2022-09-15T10:36:31.554Z,101047.31
2022-09-15T10:39:31.731Z,101056.59
2022-09-15T10:42:40.004Z,101046.53
2022-09-15T10:45:14.663Z,101042.72
2022-09-15T10:47:48.870Z,101042.19
2022-09-15T10:50:30.890Z,101045.22
2022-09-15T10:53:10.766Z,101039.41
2022-09-15T10:56:08.509Z,101044.47
2022-09-15T10:58:55.961Z,101036.47
2022-09-15T11:01:28.828Z,101039.34
2022-09-15T11:04:20.032Z,101037.03
2022-09-15T11:07:12.274Z,101041.69
2022-09-15T11:09:45.830Z,101043.63
2022-09-15T11:12:29.439Z,101043.47
2022-09-15T11:15:31.004Z,101041.41
2022-09-15T11:18:00.247Z,101045.41
2022-09-15T11:21:12.731Z,101045.91
2022-09-15T11:23:48.098Z,101041.38
2022-09-15T11:26:38.628Z,101036.03
2022-09-15T11:29:46.944Z,101046.28
2022-09-15T11:32:26.759Z,101035.53
2022-09-15T11:35:01.565Z,101041.06
2022-09-15T11:37:43.571Z,101038.47
2022-09-15T11:40:19.054Z,101032.31
2022-09-15T11:43:01.262Z,101039.19
2022-09-15T11:45:35.538Z,101042.47
2022-09-15T11:48:28.552Z,101049.19
2022-09-15T11:51:00.262Z,101043.34
2022-09-15T11:53:39.688Z,101055.44
2022-09-15T11:56:13.461Z,101048.06
2022-09-15T11:59:17.419Z,101047.66
2022-09-15T12:01:59.582Z,101047.03
2022-09-15T12:04:35.625Z,101033.13
2022-09-15T12:07:17.982Z,101040.97
2022-09-15T12:09:45.251Z,101033.56
2022-09-15T12:12:19.890Z,101039.06
2022-09-15T12:14:49.567Z,101039.00
2022-09-15T12:17:46.782Z,101025.88
2022-09-15T12:20:28.902Z,101032.56
2022-09-15T12:23:22.362Z,101032.50
2022-09-15T12:26:22.462Z,101032.56
2022-09-15T12:29:21.568Z,101021.41
2022-09-15T12:31:48.466Z,101033.25
2022-09-15T12:34:33.485Z,101042.84
2022-09-15T12:37:12.756Z,101048.88
2022-09-15T12:39:43.407Z,101041.94
2022-09-15T12:42:29.688Z,101045.22
2022-09-15T12:45:02.892Z,101049.03
2022-09-15T12:47:40.692Z,101045.41
2022-09-15T12:50:16.252Z,101052.88
2022-09-15T12:52:48.606Z,101054.63
2022-09-15T12:55:49.700Z,101059.81
2022-09-15T12:58:22.261Z,101071.75
2022-09-15T13:01:16.584Z,101065.13
2022-09-15T13:06:26.644Z,101087.47
2022-09-15T13:09:02.728Z,101081.94
2022-09-15T13:11:38.599Z,101080.16
2022-09-15T13:14:08.363Z,101078.41
2022-09-15T13:16:48.850Z,101089.66
2022-09-15T13:19:24.689Z,101077.97
2022-09-15T13:22:04.138Z,101080.81
2022-09-15T13:25:01.512Z,101086.72
2022-09-15T13:27:42.049Z,101079.88
2022-09-15T13:30:21.594Z,101075.66
2022-09-15T13:33:15.980Z,101086.34
2022-09-15T13:36:02.917Z,101071.66
2022-09-15T13:38:53.079Z,101078.91
2022-09-15T13:41:37.390Z,101061.25
2022-09-15T13:44:07.158Z,101072.91
2022-09-15T13:46:55.886Z,101070.41
2022-09-15T13:49:49.241Z,101066.59
2022-09-15T13:52:19.300Z,101064.25
2022-09-15T13:55:28.352Z,101059.75
2022-09-15T14:00:57.813Z,101066.50
2022-09-15T14:03:41.927Z,101056.66
2022-09-15T14:06:20.036Z,101064.22
2022-09-15T14:08:57.364Z,101062.59
2022-09-15T14:11:29.585Z,101071.06
2022-09-15T14:13:59.384Z,101076.16
2022-09-15T14:16:34.099Z,101079.16
2022-09-15T14:19:04.190Z,101086.78
2022-09-15T14:21:33.349Z,101095.09
2022-09-15T14:24:17.853Z,101088.13
2022-09-15T14:26:44.745Z,101086.06
2022-09-15T14:29:20.914Z,101094.81
2022-09-15T14:31:49.293Z,101088.97
2022-09-15T14:34:20.837Z,101084.34
2022-09-15T14:36:58.473Z,101091.06
2022-09-15T14:39:25.440Z,101088.88
2022-09-15T14:41:52.539Z,101091.72
2022-09-15T14:47:25.695Z,101084.63
2022-09-15T14:50:19.862Z,101087.72
2022-09-15T14:53:02.032Z,101095.16
2022-09-15T14:55:34.159Z,101086.78
2022-09-15T14:58:22.163Z,101085.00
2022-09-15T15:00:56.171Z,101086.41
2022-09-15T15:03:57.910Z,101082.63
2022-09-15T15:06:39.711Z,101072.03
2022-09-15T15:09:08.857Z,101083.06
2022-09-15T15:11:38.981Z,101083.88
2022-09-15T15:14:08.808Z,101086.00
2022-09-15T15:16:36.106Z,101086.34
2022-09-15T15:19:03.551Z,101084.38
2022-09-15T15:21:36.180Z,101081.06
2022-09-15T15:24:10.335Z,101079.63
2022-09-15T15:26:42.461Z,101079.97
2022-09-15T15:29:43.356Z,101077.41
2022-09-15T15:32:16.197Z,101081.50
2022-09-15T15:35:18.323Z,101081.16
2022-09-15T15:37:45.729Z,101092.59
2022-09-15T15:40:21.364Z,101089.81
2022-09-15T15:43:03.629Z,101087.22
2022-09-15T15:45:32.785Z,101087.84
2022-09-15T15:48:02.020Z,101094.00
2022-09-15T15:50:32.361Z,101093.66
2022-09-15T15:53:00.886Z,101098.47
2022-09-15T15:55:41.714Z,101116.69
2022-09-15T15:58:11.159Z,101111.28
2022-09-15T16:00:38.491Z,101112.81
2022-09-15T16:03:05.840Z,101111.44
2022-09-15T16:05:34.480Z,101110.78
2022-09-15T16:08:07.233Z,101120.41
2022-09-15T16:10:40.647Z,101119.56
2022-09-15T16:13:08.490Z,101122.78
2022-09-15T16:15:35.609Z,101124.06
2022-09-15T16:18:02.767Z,101115.31
2022-09-15T16:20:30.795Z,101130.09
2022-09-15T16:22:57.879Z,101119.53
2022-09-15T16:25:38.087Z,101114.56
2022-09-15T16:28:05.190Z,101122.03
2022-09-15T16:30:33.532Z,101126.22
2022-09-15T16:33:00.555Z,101112.09
2022-09-15T16:35:46.217Z,101123.25
2022-09-15T16:38:13.045Z,101131.81
2022-09-15T16:40:39.875Z,101124.66
2022-09-15T16:43:12.710Z,101130.28
2022-09-15T16:45:41.011Z,101133.09
2022-09-15T16:48:09.324Z,101132.84
2022-09-15T16:50:39.844Z,101120.72
2022-09-15T16:53:18.166Z,101127.59
2022-09-15T16:55:49.971Z,101119.88
2022-09-15T16:58:18.308Z,101127.94
2022-09-15T17:00:48.441Z,101119.63
2022-09-15T17:03:17.759Z,101123.53
2022-09-15T17:05:52.401Z,101117.81
2022-09-15T17:08:22.210Z,101111.63
2022-09-15T17:10:49.716Z,101104.81
2022-09-15T17:13:19.176Z,101104.53
2022-09-15T17:15:46.778Z,101117.09
2022-09-15T17:18:15.630Z,101117.88
2022-09-15T17:20:47.427Z,101118.66
2022-09-15T17:23:41.277Z,101110.91
2022-09-15T17:26:14.259Z,101123.78
2022-09-15T17:28:42.395Z,101118.22
2022-09-15T17:31:15.889Z,101127.69
2022-09-15T17:33:43.030Z,101127.84
2022-09-15T17:36:10.070Z,101134.53
2022-09-15T17:38:36.978Z,101122.72
2022-09-15T17:41:04.333Z,101127.69
2022-09-15T17:43:31.581Z,101128.31
2022-09-15T17:45:58.668Z,101119.78
2022-09-15T17:48:25.738Z,101128.44
2022-09-15T17:50:52.622Z,101134.22
2022-09-15T17:53:26.983Z,101133.28
2022-09-15T17:55:55.709Z,101143.66
2022-09-15T17:58:24.003Z,101129.88
2022-09-15T18:00:51.617Z,101138.53
2022-09-15T18:03:30.962Z,101136.09
2022-09-15T18:06:00.543Z,101141.19
2022-09-15T18:08:27.959Z,101140.25
2022-09-15T18:10:55.126Z,101143.50
2022-09-15T18:13:24.564Z,101143.66
2022-09-15T18:15:51.512Z,101146.59
2022-09-15T18:18:21.344Z,101149.69
2022-09-15T18:20:50.074Z,101152.47
2022-09-15T18:23:18.990Z,101154.34
2022-09-15T18:25:47.205Z,101176.19
2022-09-15T18:28:14.568Z,101172.75
2022-09-15T18:30:46.131Z,101189.09
2022-09-15T18:33:15.456Z,101195.84
2022-09-15T18:35:42.662Z,101190.47
2022-09-15T18:38:10.471Z,101195.72
2022-09-15T18:40:37.423Z,101193.19
2022-09-15T18:43:04.698Z,101186.22
2022-09-15T18:45:31.668Z,101189.91
2022-09-15T18:47:58.461Z,101195.34
2022-09-15T18:50:25.815Z,101209.25
2022-09-15T18:52:53.174Z,101209.41
2022-09-15T18:55:22.322Z,101207.97
2022-09-15T18:57:49.539Z,101200.19
2022-09-15T19:00:20.013Z,101187.06
2022-09-15T19:02:47.416Z,101180.28
2022-09-15T19:05:18.146Z,101179.47
2022-09-15T19:07:45.961Z,101187.06
2022-09-15T19:10:16.396Z,101194.47
2022-09-15T19:12:44.154Z,101207.13
2022-09-15T19:15:13.368Z,101203.84
2022-09-15T19:17:41.731Z,101202.59
2022-09-15T19:20:10.888Z,101202.03
2022-09-15T19:22:38.282Z,101198.31
2022-09-15T19:25:07.087Z,101202.31
2022-09-15T19:27:34.079Z,101202.41
2022-09-15T19:30:01.907Z,101199.94
2022-09-15T19:32:28.957Z,101192.28
2022-09-15T19:34:55.881Z,101194.53
2022-09-15T19:37:23.126Z,101197.34
2022-09-15T19:39:50.272Z,101198.41
2022-09-15T19:42:17.394Z,101199.06
2022-09-15T19:44:44.793Z,101202.78
2022-09-15T19:47:12.256Z,101203.56
2022-09-15T19:49:39.312Z,101209.72
2022-09-15T19:52:06.615Z,101211.69
2022-09-15T19:54:34.797Z,101215.38
2022-09-15T19:57:02.548Z,101215.50
2022-09-15T19:59:31.633Z,101212.88
2022-09-15T20:02:00.002Z,101223.66
2022-09-15T20:04:28.378Z,101217.94
2022-09-15T20:06:55.328Z,101228.84
2022-09-15T20:09:22.721Z,101226.31
2022-09-15T20:11:49.692Z,101226.44
2022-09-15T20:14:16.591Z,101216.81
2022-09-15T20:16:43.606Z,101213.81
2022-09-15T20:19:10.499Z,101214.59
2022-09-15T20:21:49.753Z,101207.28
2022-09-15T20:24:17.997Z,101215.66
2022-09-15T20:26:45.007Z,101210.72
2022-09-15T20:29:12.316Z,101207.00
2022-09-15T20:31:39.597Z,101215.16
2022-09-15T20:34:06.604Z,101211.28
2022-09-15T20:36:36.309Z,101221.00
2022-09-15T20:39:05.536Z,101213.44
2022-09-15T20:41:32.663Z,101214.00
2022-09-15T20:44:00.386Z,101212.44
2022-09-15T20:46:29.389Z,101213.19
2022-09-15T20:48:56.436Z,101206.41
2022-09-15T20:51:29.663Z,101213.03
2022-09-15T20:53:58.409Z,101213.03
2022-09-15T20:56:28.064Z,101213.59
2022-09-15T20:58:56.899Z,101213.41
2022-09-15T21:01:26.879Z,101212.16
2022-09-15T21:03:55.488Z,101215.06
2022-09-15T21:06:27.481Z,101218.28
2022-09-15T21:08:56.265Z,101216.53
2022-09-15T21:11:24.430Z,101219.47
2022-09-15T21:13:51.321Z,101218.50
2022-09-15T21:16:20.778Z,101226.44
2022-09-15T21:18:48.770Z,101225.25
2022-09-15T21:21:16.841Z,101225.88
2022-09-15T21:23:49.447Z,101221.47
2022-09-15T21:26:27.648Z,101222.34
2022-09-15T21:28:55.498Z,101222.16
2022-09-15T21:31:24.997Z,101219.63
2022-09-15T21:33:52.924Z,101225.44
2022-09-15T21:36:22.349Z,101229.13
2022-09-15T21:38:51.248Z,101228.34
2022-09-15T21:41:23.192Z,101233.41
2022-09-15T21:43:55.445Z,101235.22
2022-09-15T21:46:25.007Z,101230.84
2022-09-15T21:48:51.889Z,101228.34
2022-09-15T21:51:24.776Z,101230.47
2022-09-15T21:53:56.471Z,101229.38
2022-09-15T21:56:24.087Z,101230.47
2022-09-15T21:58:50.928Z,101231.03
2022-09-15T22:01:22.024Z,101228.50
2022-09-15T22:04:00.542Z,101230.81
2022-09-15T22:06:32.126Z,101231.91
2022-09-15T22:09:16.169Z,101236.44
2022-09-15T22:11:42.994Z,101250.09
2022-09-15T22:14:10.533Z,101240.19
2022-09-15T22:16:39.443Z,101234.69
2022-09-15T22:19:07.939Z,101230.50
2022-09-15T22:21:37.050Z,101217.97
2022-09-15T22:24:07.096Z,101225.53
2022-09-15T22:26:37.292Z,101223.50
2022-09-15T22:29:05.421Z,101223.00
2022-09-15T22:31:32.318Z,101212.03
2022-09-15T22:33:59.071Z,101202.59
2022-09-15T22:36:29.876Z,101206.78
2022-09-15T22:39:05.943Z,101205.22
2022-09-15T22:41:35.728Z,101199.50
2022-09-15T22:44:03.514Z,101202.44
2022-09-15T22:46:30.371Z,101209.47
2022-09-15T22:48:57.459Z,101197.97
2022-09-15T22:51:24.269Z,101194.84
2022-09-15T22:53:54.796Z,101193.88
2022-09-15T22:56:21.766Z,101204.91
2022-09-15T22:58:49.541Z,101206.81
2022-09-15T23:01:22.194Z,101208.75
2022-09-15T23:03:54.456Z,101204.63
2022-09-15T23:06:22.284Z,101201.22
2022-09-15T23:08:57.075Z,101208.66
2022-09-15T23:11:25.203Z,101207.84
2022-09-15T23:13:53.589Z,101211.28
2022-09-15T23:16:20.894Z,101209.44
2022-09-15T23:18:48.437Z,101210.47
2022-09-15T23:21:15.273Z,101210.78
2022-09-15T23:23:44.357Z,101226.19
2022-09-15T23:26:12.642Z,101217.78
2022-09-15T23:28:39.953Z,101226.41
2022-09-15T23:31:07.955Z,101223.22
2022-09-15T23:33:34.787Z,101217.72
2022-09-15T23:36:03.139Z,101218.22
2022-09-15T23:38:30.268Z,101210.34
2022-09-15T23:40:57.845Z,101205.63
2022-09-15T23:43:24.632Z,101204.84
2022-09-15T23:45:51.471Z,101203.03
2022-09-15T23:48:18.285Z,101211.41
2022-09-15T23:50:45.225Z,101202.50
2022-09-15T23:53:12.986Z,101209.28
2022-09-15T23:55:39.734Z,101209.81
2022-09-15T23:58:07.593Z,101209.81
